sensor_id;sensor_type;location;lat;lon;timestamp;P1;durP1;ratioP1;P2;durP2;ratioP2
72584;SDS011;60618;40.084;32.908;2023-05-23T00:01:29;17.58;;;9.63;;
72584;SDS011;60618;40.084;32.908;2023-05-23T00:03:56;19.23;;;9.40;;
72584;SDS011;60618;40.084;32.908;2023-05-23T00:06:24;21.58;;;10.65;;
72584;SDS011;60618;40.084;32.908;2023-05-23T00:08:51;21.70;;;10.95;;
72584;SDS011;60618;40.084;32.908;2023-05-23T00:11:18;21.10;;;9.38;;
72584;SDS011;60618;40.084;32.908;2023-05-23T00:13:45;18.63;;;10.10;;
72584;SDS011;60618;40.084;32.908;2023-05-23T00:16:12;20.50;;;9.73;;
72584;SDS011;60618;40.084;32.908;2023-05-23T00:18:39;16.10;;;8.25;;
72584;SDS011;60618;40.084;32.908;2023-05-23T00:21:06;15.40;;;7.85;;
72584;SDS011;60618;40.084;32.908;2023-05-23T00:23:34;14.13;;;7.47;;
72584;SDS011;60618;40.084;32.908;2023-05-23T00:26:01;16.80;;;8.05;;
72584;SDS011;60618;40.084;32.908;2023-05-23T00:28:28;16.63;;;8.37;;
72584;SDS011;60618;40.084;32.908;2023-05-23T00:30:54;16.65;;;8.23;;
72584;SDS011;60618;40.084;32.908;2023-05-23T00:33:21;17.50;;;9.05;;
72584;SDS011;60618;40.084;32.908;2023-05-23T00:35:48;18.35;;;8.50;;
72584;SDS011;60618;40.084;32.908;2023-05-23T00:38:15;16.23;;;8.25;;
72584;SDS011;60618;40.084;32.908;2023-05-23T00:40:43;18.03;;;8.67;;
72584;SDS011;60618;40.084;32.908;2023-05-23T00:43:10;21.33;;;11.02;;
72584;SDS011;60618;40.084;32.908;2023-05-23T00:45:37;26.25;;;13.95;;
72584;SDS011;60618;40.084;32.908;2023-05-23T00:48:04;27.50;;;15.75;;
72584;SDS011;60618;40.084;32.908;2023-05-23T00:50:33;29.08;;;15.13;;
72584;SDS011;60618;40.084;32.908;2023-05-23T00:53:00;31.73;;;15.37;;
72584;SDS011;60618;40.084;32.908;2023-05-23T00:55:27;27.02;;;15.43;;
72584;SDS011;60618;40.084;32.908;2023-05-23T00:57:55;24.10;;;14.45;;
72584;SDS011;60618;40.084;32.908;2023-05-23T01:00:23;27.17;;;14.75;;
72584;SDS011;60618;40.084;32.908;2023-05-23T01:02:51;20.67;;;11.98;;
72584;SDS011;60618;40.084;32.908;2023-05-23T01:05:19;20.20;;;11.03;;
72584;SDS011;60618;40.084;32.908;2023-05-23T01:07:47;22.15;;;12.35;;
72584;SDS011;60618;40.084;32.908;2023-05-23T01:10:15;24.58;;;13.23;;
72584;SDS011;60618;40.084;32.908;2023-05-23T01:18:38;21.07;;;10.33;;
72584;SDS011;60618;40.084;32.908;2023-05-23T01:21:10;18.13;;;9.88;;
72584;SDS011;60618;40.084;32.908;2023-05-23T01:26:39;23.90;;;11.18;;
72584;SDS011;60618;40.084;32.908;2023-05-23T01:29:28;17.65;;;8.93;;
72584;SDS011;60618;40.084;32.908;2023-05-23T01:32:00;17.20;;;8.17;;
72584;SDS011;60618;40.084;32.908;2023-05-23T01:34:30;16.20;;;8.00;;
72584;SDS011;60618;40.084;32.908;2023-05-23T01:37:00;18.90;;;9.23;;
72584;SDS011;60618;40.084;32.908;2023-05-23T01:39:27;16.10;;;7.88;;
72584;SDS011;60618;40.084;32.908;2023-05-23T01:41:54;15.32;;;8.20;;
72584;SDS011;60618;40.084;32.908;2023-05-23T01:44:21;17.60;;;8.93;;
72584;SDS011;60618;40.084;32.908;2023-05-23T01:46:48;17.75;;;8.48;;
72584;SDS011;60618;40.084;32.908;2023-05-23T01:49:15;20.02;;;9.40;;
72584;SDS011;60618;40.084;32.908;2023-05-23T01:51:44;17.10;;;8.07;;
72584;SDS011;60618;40.084;32.908;2023-05-23T01:54:12;16.63;;;7.80;;
72584;SDS011;60618;40.084;32.908;2023-05-23T01:56:41;19.83;;;9.03;;
72584;SDS011;60618;40.084;32.908;2023-05-23T01:59:08;19.50;;;9.50;;
72584;SDS011;60618;40.084;32.908;2023-05-23T02:01:36;20.52;;;8.80;;
72584;SDS011;60618;40.084;32.908;2023-05-23T02:04:03;18.65;;;9.02;;
72584;SDS011;60618;40.084;32.908;2023-05-23T02:06:30;15.70;;;8.52;;
72584;SDS011;60618;40.084;32.908;2023-05-23T02:08:57;17.20;;;9.70;;
72584;SDS011;60618;40.084;32.908;2023-05-23T02:11:24;24.58;;;11.43;;
72584;SDS011;60618;40.084;32.908;2023-05-23T02:13:51;19.92;;;10.40;;
72584;SDS011;60618;40.084;32.908;2023-05-23T02:16:18;21.40;;;11.70;;
72584;SDS011;60618;40.084;32.908;2023-05-23T02:18:45;26.55;;;12.48;;
72584;SDS011;60618;40.084;32.908;2023-05-23T02:21:12;22.47;;;11.87;;
72584;SDS011;60618;40.084;32.908;2023-05-23T02:23:39;20.30;;;10.82;;
72584;SDS011;60618;40.084;32.908;2023-05-23T02:26:06;19.35;;;10.00;;
72584;SDS011;60618;40.084;32.908;2023-05-23T02:28:33;20.95;;;10.88;;
72584;SDS011;60618;40.084;32.908;2023-05-23T02:31:00;18.90;;;9.90;;
72584;SDS011;60618;40.084;32.908;2023-05-23T02:33:28;18.40;;;8.73;;
72584;SDS011;60618;40.084;32.908;2023-05-23T02:35:55;18.90;;;9.02;;
72584;SDS011;60618;40.084;32.908;2023-05-23T02:38:22;18.58;;;9.45;;
72584;SDS011;60618;40.084;32.908;2023-05-23T02:40:49;21.80;;;11.10;;
72584;SDS011;60618;40.084;32.908;2023-05-23T02:43:16;21.15;;;10.35;;
72584;SDS011;60618;40.084;32.908;2023-05-23T02:45:43;22.93;;;10.60;;
72584;SDS011;60618;40.084;32.908;2023-05-23T02:48:10;20.75;;;11.18;;
72584;SDS011;60618;40.084;32.908;2023-05-23T02:50:37;25.52;;;12.43;;
72584;SDS011;60618;40.084;32.908;2023-05-23T02:53:03;22.23;;;11.63;;
72584;SDS011;60618;40.084;32.908;2023-05-23T02:55:31;24.90;;;12.32;;
72584;SDS011;60618;40.084;32.908;2023-05-23T02:57:57;22.53;;;10.47;;
72584;SDS011;60618;40.084;32.908;2023-05-23T03:00:24;18.45;;;10.23;;
72584;SDS011;60618;40.084;32.908;2023-05-23T03:02:51;26.10;;;12.20;;
72584;SDS011;60618;40.084;32.908;2023-05-23T03:05:18;23.08;;;11.50;;
72584;SDS011;60618;40.084;32.908;2023-05-23T03:07:45;23.63;;;11.80;;
72584;SDS011;60618;40.084;32.908;2023-05-23T03:10:12;22.83;;;10.80;;
72584;SDS011;60618;40.084;32.908;2023-05-23T03:12:39;27.38;;;11.43;;
72584;SDS011;60618;40.084;32.908;2023-05-23T03:15:06;22.35;;;9.75;;
72584;SDS011;60618;40.084;32.908;2023-05-23T03:17:33;21.98;;;10.25;;
72584;SDS011;60618;40.084;32.908;2023-05-23T03:20:00;25.50;;;11.30;;
72584;SDS011;60618;40.084;32.908;2023-05-23T03:22:27;24.67;;;11.60;;
72584;SDS011;60618;40.084;32.908;2023-05-23T03:24:54;22.42;;;10.43;;
72584;SDS011;60618;40.084;32.908;2023-05-23T03:27:21;26.75;;;11.98;;
72584;SDS011;60618;40.084;32.908;2023-05-23T03:29:47;26.45;;;11.38;;
72584;SDS011;60618;40.084;32.908;2023-05-23T03:32:14;23.45;;;11.63;;
72584;SDS011;60618;40.084;32.908;2023-05-23T03:34:41;25.43;;;11.73;;
72584;SDS011;60618;40.084;32.908;2023-05-23T03:37:08;25.42;;;11.68;;
72584;SDS011;60618;40.084;32.908;2023-05-23T03:39:35;19.38;;;10.27;;
72584;SDS011;60618;40.084;32.908;2023-05-23T03:42:05;22.70;;;11.43;;
72584;SDS011;60618;40.084;32.908;2023-05-23T03:44:32;27.05;;;11.95;;
72584;SDS011;60618;40.084;32.908;2023-05-23T03:46:59;20.27;;;11.23;;
72584;SDS011;60618;40.084;32.908;2023-05-23T03:49:26;21.80;;;10.05;;
72584;SDS011;60618;40.084;32.908;2023-05-23T03:51:52;25.85;;;11.88;;
72584;SDS011;60618;40.084;32.908;2023-05-23T03:54:19;25.42;;;12.90;;
72584;SDS011;60618;40.084;32.908;2023-05-23T03:56:46;24.77;;;12.57;;
72584;SDS011;60618;40.084;32.908;2023-05-23T03:59:13;26.00;;;13.17;;
72584;SDS011;60618;40.084;32.908;2023-05-23T04:01:40;24.08;;;13.30;;
72584;SDS011;60618;40.084;32.908;2023-05-23T04:04:07;26.95;;;14.43;;
72584;SDS011;60618;40.084;32.908;2023-05-23T04:06:34;26.10;;;13.30;;
72584;SDS011;60618;40.084;32.908;2023-05-23T04:09:01;26.50;;;14.90;;
72584;SDS011;60618;40.084;32.908;2023-05-23T04:11:28;26.80;;;14.67;;
72584;SDS011;60618;40.084;32.908;2023-05-23T04:13:55;26.13;;;14.20;;
72584;SDS011;60618;40.084;32.908;2023-05-23T04:16:22;23.10;;;11.70;;
72584;SDS011;60618;40.084;32.908;2023-05-23T04:18:48;22.13;;;11.15;;
72584;SDS011;60618;40.084;32.908;2023-05-23T04:21:15;18.85;;;10.95;;
72584;SDS011;60618;40.084;32.908;2023-05-23T04:23:42;20.03;;;9.73;;
72584;SDS011;60618;40.084;32.908;2023-05-23T04:26:09;27.90;;;12.02;;
72584;SDS011;60618;40.084;32.908;2023-05-23T04:28:36;21.85;;;11.93;;
72584;SDS011;60618;40.084;32.908;2023-05-23T04:31:03;24.88;;;13.63;;
72584;SDS011;60618;40.084;32.908;2023-05-23T04:33:30;34.08;;;17.00;;
72584;SDS011;60618;40.084;32.908;2023-05-23T04:35:57;29.53;;;15.93;;
72584;SDS011;60618;40.084;32.908;2023-05-23T04:38:24;30.77;;;14.95;;
72584;SDS011;60618;40.084;32.908;2023-05-23T04:40:51;26.40;;;12.45;;
72584;SDS011;60618;40.084;32.908;2023-05-23T04:43:18;26.02;;;12.35;;
72584;SDS011;60618;40.084;32.908;2023-05-23T04:45:46;26.77;;;13.10;;
72584;SDS011;60618;40.084;32.908;2023-05-23T04:48:13;27.87;;;12.30;;
72584;SDS011;60618;40.084;32.908;2023-05-23T04:50:40;30.17;;;12.60;;
72584;SDS011;60618;40.084;32.908;2023-05-23T04:53:07;25.98;;;13.38;;
72584;SDS011;60618;40.084;32.908;2023-05-23T04:55:34;28.02;;;13.38;;
72584;SDS011;60618;40.084;32.908;2023-05-23T04:58:01;24.85;;;12.30;;
72584;SDS011;60618;40.084;32.908;2023-05-23T05:00:28;23.00;;;12.93;;
72584;SDS011;60618;40.084;32.908;2023-05-23T05:02:55;27.60;;;12.75;;
72584;SDS011;60618;40.084;32.908;2023-05-23T05:05:22;28.35;;;12.13;;
72584;SDS011;60618;40.084;32.908;2023-05-23T05:07:49;25.20;;;12.73;;
72584;SDS011;60618;40.084;32.908;2023-05-23T05:10:16;25.58;;;11.88;;
72584;SDS011;60618;40.084;32.908;2023-05-23T05:12:46;27.27;;;12.40;;
72584;SDS011;60618;40.084;32.908;2023-05-23T05:15:13;26.77;;;13.23;;
72584;SDS011;60618;40.084;32.908;2023-05-23T05:17:43;29.45;;;13.20;;
72584;SDS011;60618;40.084;32.908;2023-05-23T05:20:13;29.10;;;12.48;;
72584;SDS011;60618;40.084;32.908;2023-05-23T05:22:40;23.13;;;11.88;;
72584;SDS011;60618;40.084;32.908;2023-05-23T05:25:07;24.97;;;12.13;;
72584;SDS011;60618;40.084;32.908;2023-05-23T05:27:35;24.52;;;11.60;;
72584;SDS011;60618;40.084;32.908;2023-05-23T05:30:06;25.88;;;10.68;;
72584;SDS011;60618;40.084;32.908;2023-05-23T05:32:34;23.27;;;9.73;;
72584;SDS011;60618;40.084;32.908;2023-05-23T05:35:01;22.40;;;9.57;;
72584;SDS011;60618;40.084;32.908;2023-05-23T05:37:29;25.93;;;10.43;;
72584;SDS011;60618;40.084;32.908;2023-05-23T05:39:56;24.45;;;10.48;;
72584;SDS011;60618;40.084;32.908;2023-05-23T05:42:23;24.63;;;10.35;;
72584;SDS011;60618;40.084;32.908;2023-05-23T05:44:50;22.63;;;10.77;;
72584;SDS011;60618;40.084;32.908;2023-05-23T05:47:16;25.25;;;10.88;;
72584;SDS011;60618;40.084;32.908;2023-05-23T05:49:43;27.23;;;11.47;;
72584;SDS011;60618;40.084;32.908;2023-05-23T05:52:10;27.35;;;11.02;;
72584;SDS011;60618;40.084;32.908;2023-05-23T05:54:37;33.55;;;12.98;;
72584;SDS011;60618;40.084;32.908;2023-05-23T05:57:04;26.02;;;12.02;;
72584;SDS011;60618;40.084;32.908;2023-05-23T05:59:31;28.45;;;12.35;;
72584;SDS011;60618;40.084;32.908;2023-05-23T06:01:58;30.40;;;12.53;;
72584;SDS011;60618;40.084;32.908;2023-05-23T06:04:25;26.08;;;11.65;;
72584;SDS011;60618;40.084;32.908;2023-05-23T06:06:52;28.27;;;12.10;;
72584;SDS011;60618;40.084;32.908;2023-05-23T06:09:19;27.20;;;11.90;;
72584;SDS011;60618;40.084;32.908;2023-05-23T06:11:46;30.48;;;12.23;;
72584;SDS011;60618;40.084;32.908;2023-05-23T06:14:13;26.63;;;12.70;;
72584;SDS011;60618;40.084;32.908;2023-05-23T06:16:40;27.70;;;13.07;;
72584;SDS011;60618;40.084;32.908;2023-05-23T06:19:07;32.92;;;13.90;;
72584;SDS011;60618;40.084;32.908;2023-05-23T06:21:34;30.10;;;14.10;;
72584;SDS011;60618;40.084;32.908;2023-05-23T06:24:01;33.38;;;15.48;;
72584;SDS011;60618;40.084;32.908;2023-05-23T06:26:27;34.87;;;14.73;;
72584;SDS011;60618;40.084;32.908;2023-05-23T06:28:54;31.25;;;14.40;;
72584;SDS011;60618;40.084;32.908;2023-05-23T06:31:21;31.75;;;15.73;;
72584;SDS011;60618;40.084;32.908;2023-05-23T06:33:48;30.10;;;13.52;;
72584;SDS011;60618;40.084;32.908;2023-05-23T06:36:15;30.40;;;13.75;;
72584;SDS011;60618;40.084;32.908;2023-05-23T06:38:42;33.17;;;14.13;;
72584;SDS011;60618;40.084;32.908;2023-05-23T06:41:09;33.45;;;14.60;;
72584;SDS011;60618;40.084;32.908;2023-05-23T06:43:36;35.63;;;15.48;;
72584;SDS011;60618;40.084;32.908;2023-05-23T06:46:03;33.85;;;14.60;;
72584;SDS011;60618;40.084;32.908;2023-05-23T06:48:30;33.03;;;14.75;;
72584;SDS011;60618;40.084;32.908;2023-05-23T06:50:58;37.50;;;15.93;;
72584;SDS011;60618;40.084;32.908;2023-05-23T06:53:25;31.38;;;14.32;;
72584;SDS011;60618;40.084;32.908;2023-05-23T06:55:51;33.90;;;14.90;;
72584;SDS011;60618;40.084;32.908;2023-05-23T06:58:20;34.38;;;14.75;;
72584;SDS011;60618;40.084;32.908;2023-05-23T07:00:47;32.83;;;13.93;;
72584;SDS011;60618;40.084;32.908;2023-05-23T07:03:16;39.90;;;22.97;;
72584;SDS011;60618;40.084;32.908;2023-05-23T07:05:43;33.80;;;13.88;;
72584;SDS011;60618;40.084;32.908;2023-05-23T07:08:10;29.05;;;13.05;;
72584;SDS011;60618;40.084;32.908;2023-05-23T07:10:37;33.85;;;14.95;;
72584;SDS011;60618;40.084;32.908;2023-05-23T07:13:05;23.83;;;11.90;;
72584;SDS011;60618;40.084;32.908;2023-05-23T07:15:32;26.13;;;11.80;;
72584;SDS011;60618;40.084;32.908;2023-05-23T07:17:59;30.52;;;14.27;;
72584;SDS011;60618;40.084;32.908;2023-05-23T07:20:26;26.73;;;11.38;;
72584;SDS011;60618;40.084;32.908;2023-05-23T07:22:53;28.73;;;12.18;;
72584;SDS011;60618;40.084;32.908;2023-05-23T07:25:20;22.30;;;10.35;;
72584;SDS011;60618;40.084;32.908;2023-05-23T07:27:47;27.80;;;12.27;;
72584;SDS011;60618;40.084;32.908;2023-05-23T07:30:14;28.25;;;15.00;;
72584;SDS011;60618;40.084;32.908;2023-05-23T07:32:41;35.33;;;14.68;;
72584;SDS011;60618;40.084;32.908;2023-05-23T07:35:08;30.55;;;13.85;;
72584;SDS011;60618;40.084;32.908;2023-05-23T07:37:35;33.15;;;14.88;;
72584;SDS011;60618;40.084;32.908;2023-05-23T07:40:03;32.30;;;14.87;;
72584;SDS011;60618;40.084;32.908;2023-05-23T07:42:31;32.40;;;14.85;;
72584;SDS011;60618;40.084;32.908;2023-05-23T07:44:58;35.55;;;15.40;;
72584;SDS011;60618;40.084;32.908;2023-05-23T07:47:25;31.27;;;15.90;;
72584;SDS011;60618;40.084;32.908;2023-05-23T07:49:52;32.05;;;15.75;;
72584;SDS011;60618;40.084;32.908;2023-05-23T07:52:19;37.57;;;16.07;;
72584;SDS011;60618;40.084;32.908;2023-05-23T07:54:46;34.05;;;16.38;;
72584;SDS011;60618;40.084;32.908;2023-05-23T07:57:13;35.63;;;19.38;;
72584;SDS011;60618;40.084;32.908;2023-05-23T07:59:40;38.63;;;19.30;;
72584;SDS011;60618;40.084;32.908;2023-05-23T08:02:07;37.63;;;17.70;;
72584;SDS011;60618;40.084;32.908;2023-05-23T08:04:34;31.27;;;15.50;;
72584;SDS011;60618;40.084;32.908;2023-05-23T08:07:01;31.73;;;15.68;;
72584;SDS011;60618;40.084;32.908;2023-05-23T08:09:31;33.13;;;16.33;;
72584;SDS011;60618;40.084;32.908;2023-05-23T08:11:58;30.77;;;14.25;;
72584;SDS011;60618;40.084;32.908;2023-05-23T08:14:26;35.22;;;13.38;;
72584;SDS011;60618;40.084;32.908;2023-05-23T08:17:07;29.37;;;12.30;;
72584;SDS011;60618;40.084;32.908;2023-05-23T08:19:35;26.42;;;10.10;;
72584;SDS011;60618;40.084;32.908;2023-05-23T08:22:02;28.73;;;10.45;;
72584;SDS011;60618;40.084;32.908;2023-05-23T08:24:29;29.13;;;11.40;;
72584;SDS011;60618;40.084;32.908;2023-05-23T08:26:56;27.60;;;12.77;;
72584;SDS011;60618;40.084;32.908;2023-05-23T08:29:23;28.47;;;12.00;;
72584;SDS011;60618;40.084;32.908;2023-05-23T08:31:50;29.35;;;11.60;;
72584;SDS011;60618;40.084;32.908;2023-05-23T08:34:17;29.58;;;13.43;;
72584;SDS011;60618;40.084;32.908;2023-05-23T08:36:44;30.20;;;12.90;;
72584;SDS011;60618;40.084;32.908;2023-05-23T08:39:11;30.42;;;13.48;;
72584;SDS011;60618;40.084;32.908;2023-05-23T08:41:39;33.70;;;14.50;;
72584;SDS011;60618;40.084;32.908;2023-05-23T08:44:06;34.53;;;15.48;;
72584;SDS011;60618;40.084;32.908;2023-05-23T08:46:33;30.08;;;14.25;;
72584;SDS011;60618;40.084;32.908;2023-05-23T08:49:06;29.70;;;14.85;;
72584;SDS011;60618;40.084;32.908;2023-05-23T08:51:33;32.45;;;11.50;;
72584;SDS011;60618;40.084;32.908;2023-05-23T08:54:03;29.53;;;12.73;;
72584;SDS011;60618;40.084;32.908;2023-05-23T08:56:31;33.20;;;13.00;;
72584;SDS011;60618;40.084;32.908;2023-05-23T08:58:58;29.13;;;12.60;;
72584;SDS011;60618;40.084;32.908;2023-05-23T09:01:25;27.02;;;9.85;;
72584;SDS011;60618;40.084;32.908;2023-05-23T09:03:53;27.98;;;10.27;;
72584;SDS011;60618;40.084;32.908;2023-05-23T09:06:21;26.33;;;10.47;;
72584;SDS011;60618;40.084;32.908;2023-05-23T09:08:48;29.23;;;11.43;;
72584;SDS011;60618;40.084;32.908;2023-05-23T09:11:18;27.45;;;11.68;;
72584;SDS011;60618;40.084;32.908;2023-05-23T09:13:45;30.65;;;9.50;;
72584;SDS011;60618;40.084;32.908;2023-05-23T09:16:15;27.08;;;11.63;;
72584;SDS011;60618;40.084;32.908;2023-05-23T09:18:44;28.90;;;12.57;;
72584;SDS011;60618;40.084;32.908;2023-05-23T09:21:13;26.33;;;12.27;;
72584;SDS011;60618;40.084;32.908;2023-05-23T09:23:40;38.22;;;18.33;;
72584;SDS011;60618;40.084;32.908;2023-05-23T09:26:08;33.47;;;15.73;;
72584;SDS011;60618;40.084;32.908;2023-05-23T09:28:37;36.10;;;13.88;;
72584;SDS011;60618;40.084;32.908;2023-05-23T09:31:05;26.93;;;10.67;;
72584;SDS011;60618;40.084;32.908;2023-05-23T09:33:41;26.00;;;11.05;;
72584;SDS011;60618;40.084;32.908;2023-05-23T09:36:11;26.13;;;11.63;;
72584;SDS011;60618;40.084;32.908;2023-05-23T09:38:39;26.88;;;11.48;;
72584;SDS011;60618;40.084;32.908;2023-05-23T09:41:07;26.52;;;11.18;;
72584;SDS011;60618;40.084;32.908;2023-05-23T09:43:34;26.37;;;10.20;;
72584;SDS011;60618;40.084;32.908;2023-05-23T09:46:09;26.50;;;10.35;;
72584;SDS011;60618;40.084;32.908;2023-05-23T09:48:36;30.23;;;11.35;;
72584;SDS011;60618;40.084;32.908;2023-05-23T09:51:04;28.42;;;10.55;;
72584;SDS011;60618;40.084;32.908;2023-05-23T09:53:32;29.13;;;11.20;;
72584;SDS011;60618;40.084;32.908;2023-05-23T09:56:00;26.13;;;10.57;;
72584;SDS011;60618;40.084;32.908;2023-05-23T09:58:29;22.85;;;10.18;;
72584;SDS011;60618;40.084;32.908;2023-05-23T10:00:56;29.02;;;11.20;;
72584;SDS011;60618;40.084;32.908;2023-05-23T10:03:36;24.17;;;10.45;;
72584;SDS011;60618;40.084;32.908;2023-05-23T10:06:16;22.13;;;8.88;;
72584;SDS011;60618;40.084;32.908;2023-05-23T10:09:01;25.10;;;8.60;;
72584;SDS011;60618;40.084;32.908;2023-05-23T10:14:01;22.08;;;8.43;;
72584;SDS011;60618;40.084;32.908;2023-05-23T10:19:05;19.70;;;6.82;;
72584;SDS011;60618;40.084;32.908;2023-05-23T10:21:39;18.97;;;5.43;;
72584;SDS011;60618;40.084;32.908;2023-05-23T10:24:12;13.73;;;4.45;;
72584;SDS011;60618;40.084;32.908;2023-05-23T10:26:41;16.42;;;4.30;;
72584;SDS011;60618;40.084;32.908;2023-05-23T10:29:10;17.92;;;5.22;;
72584;SDS011;60618;40.084;32.908;2023-05-23T10:31:37;20.10;;;5.57;;
72584;SDS011;60618;40.084;32.908;2023-05-23T10:34:13;19.03;;;5.67;;
72584;SDS011;60618;40.084;32.908;2023-05-23T10:36:52;20.15;;;6.50;;
72584;SDS011;60618;40.084;32.908;2023-05-23T10:45:14;20.08;;;5.85;;
72584;SDS011;60618;40.084;32.908;2023-05-23T10:47:51;17.53;;;5.50;;
72584;SDS011;60618;40.084;32.908;2023-05-23T10:50:32;16.33;;;4.95;;
72584;SDS011;60618;40.084;32.908;2023-05-23T10:53:02;15.68;;;4.47;;
72584;SDS011;60618;40.084;32.908;2023-05-23T10:55:31;17.10;;;4.35;;
72584;SDS011;60618;40.084;32.908;2023-05-23T10:58:15;13.38;;;4.13;;
72584;SDS011;60618;40.084;32.908;2023-05-23T11:00:51;17.43;;;3.73;;
72584;SDS011;60618;40.084;32.908;2023-05-23T11:03:29;12.52;;;3.80;;
72584;SDS011;60618;40.084;32.908;2023-05-23T11:05:56;12.40;;;4.13;;
72584;SDS011;60618;40.084;32.908;2023-05-23T11:08:23;15.80;;;4.80;;
72584;SDS011;60618;40.084;32.908;2023-05-23T11:11:04;15.77;;;4.03;;
72584;SDS011;60618;40.084;32.908;2023-05-23T11:16:30;12.82;;;4.40;;
72584;SDS011;60618;40.084;32.908;2023-05-23T11:21:49;15.98;;;4.47;;
72584;SDS011;60618;40.084;32.908;2023-05-23T11:27:39;12.50;;;4.80;;
72584;SDS011;60618;40.084;32.908;2023-05-23T11:30:07;13.07;;;5.50;;
72584;SDS011;60618;40.084;32.908;2023-05-23T11:32:49;13.63;;;5.00;;
72584;SDS011;60618;40.084;32.908;2023-05-23T11:35:17;17.83;;;5.10;;
72584;SDS011;60618;40.084;32.908;2023-05-23T11:37:49;10.02;;;4.05;;
72584;SDS011;60618;40.084;32.908;2023-05-23T11:43:04;15.05;;;4.45;;
72584;SDS011;60618;40.084;32.908;2023-05-23T11:45:42;14.45;;;4.75;;
72584;SDS011;60618;40.084;32.908;2023-05-23T11:48:12;14.55;;;4.13;;
72584;SDS011;60618;40.084;32.908;2023-05-23T11:50:45;12.02;;;4.03;;
72584;SDS011;60618;40.084;32.908;2023-05-23T11:53:17;11.77;;;3.60;;
72584;SDS011;60618;40.084;32.908;2023-05-23T11:55:52;11.80;;;3.95;;
72584;SDS011;60618;40.084;32.908;2023-05-23T11:58:21;13.50;;;4.35;;
72584;SDS011;60618;40.084;32.908;2023-05-23T12:00:57;14.15;;;5.53;;
72584;SDS011;60618;40.084;32.908;2023-05-23T12:03:27;16.00;;;5.25;;
72584;SDS011;60618;40.084;32.908;2023-05-23T12:05:55;17.83;;;5.00;;
72584;SDS011;60618;40.084;32.908;2023-05-23T12:08:23;15.60;;;4.60;;
72584;SDS011;60618;40.084;32.908;2023-05-23T12:10:56;18.70;;;6.00;;
72584;SDS011;60618;40.084;32.908;2023-05-23T12:13:29;16.27;;;5.32;;
72584;SDS011;60618;40.084;32.908;2023-05-23T12:15:56;18.10;;;5.65;;
72584;SDS011;60618;40.084;32.908;2023-05-23T12:18:30;14.40;;;5.37;;
72584;SDS011;60618;40.084;32.908;2023-05-23T12:21:01;14.02;;;4.93;;
72584;SDS011;60618;40.084;32.908;2023-05-23T12:23:29;17.23;;;4.82;;
72584;SDS011;60618;40.084;32.908;2023-05-23T12:26:02;15.32;;;5.45;;
72584;SDS011;60618;40.084;32.908;2023-05-23T12:28:38;19.52;;;5.90;;
72584;SDS011;60618;40.084;32.908;2023-05-23T12:31:25;16.37;;;5.40;;
72584;SDS011;60618;40.084;32.908;2023-05-23T12:33:52;16.88;;;5.95;;
72584;SDS011;60618;40.084;32.908;2023-05-23T12:36:20;14.35;;;5.22;;
72584;SDS011;60618;40.084;32.908;2023-05-23T12:38:50;18.40;;;5.45;;
72584;SDS011;60618;40.084;32.908;2023-05-23T12:41:18;16.35;;;5.38;;
72584;SDS011;60618;40.084;32.908;2023-05-23T12:43:53;15.20;;;5.80;;
72584;SDS011;60618;40.084;32.908;2023-05-23T12:46:22;14.95;;;5.78;;
72584;SDS011;60618;40.084;32.908;2023-05-23T12:48:50;17.52;;;5.47;;
72584;SDS011;60618;40.084;32.908;2023-05-23T12:51:17;16.52;;;6.20;;
72584;SDS011;60618;40.084;32.908;2023-05-23T12:53:45;18.10;;;6.68;;
72584;SDS011;60618;40.084;32.908;2023-05-23T12:56:13;20.90;;;7.03;;
72584;SDS011;60618;40.084;32.908;2023-05-23T12:58:40;18.75;;;6.50;;
72584;SDS011;60618;40.084;32.908;2023-05-23T13:01:07;19.65;;;7.70;;
72584;SDS011;60618;40.084;32.908;2023-05-23T13:03:34;22.52;;;8.52;;
72584;SDS011;60618;40.084;32.908;2023-05-23T13:06:01;21.70;;;8.73;;
72584;SDS011;60618;40.084;32.908;2023-05-23T13:08:30;19.73;;;7.87;;
72584;SDS011;60618;40.084;32.908;2023-05-23T13:10:57;22.58;;;8.48;;
72584;SDS011;60618;40.084;32.908;2023-05-23T13:13:27;23.67;;;8.27;;
72584;SDS011;60618;40.084;32.908;2023-05-23T13:15:54;26.17;;;8.77;;
72584;SDS011;60618;40.084;32.908;2023-05-23T13:18:22;24.15;;;8.45;;
72584;SDS011;60618;40.084;32.908;2023-05-23T13:20:49;20.30;;;8.33;;
72584;SDS011;60618;40.084;32.908;2023-05-23T13:23:16;21.35;;;8.68;;
72584;SDS011;60618;40.084;32.908;2023-05-23T13:25:43;24.50;;;8.07;;
72584;SDS011;60618;40.084;32.908;2023-05-23T13:28:10;23.15;;;8.65;;
72584;SDS011;60618;40.084;32.908;2023-05-23T13:30:37;22.63;;;8.93;;
72584;SDS011;60618;40.084;32.908;2023-05-23T13:33:04;14.50;;;6.17;;
72584;SDS011;60618;40.084;32.908;2023-05-23T13:35:33;14.35;;;7.22;;
72584;SDS011;60618;40.084;32.908;2023-05-23T13:38:00;22.45;;;9.85;;
72584;SDS011;60618;40.084;32.908;2023-05-23T13:40:27;22.38;;;10.27;;
72584;SDS011;60618;40.084;32.908;2023-05-23T13:42:54;19.58;;;9.77;;
72584;SDS011;60618;40.084;32.908;2023-05-23T13:45:21;23.73;;;11.90;;
72584;SDS011;60618;40.084;32.908;2023-05-23T13:47:48;28.25;;;17.33;;
72584;SDS011;60618;40.084;32.908;2023-05-23T13:50:15;20.55;;;9.23;;
72584;SDS011;60618;40.084;32.908;2023-05-23T13:52:42;21.80;;;7.50;;
72584;SDS011;60618;40.084;32.908;2023-05-23T13:55:14;18.17;;;6.97;;
72584;SDS011;60618;40.084;32.908;2023-05-23T13:57:41;16.67;;;7.17;;
72584;SDS011;60618;40.084;32.908;2023-05-23T14:00:08;19.98;;;7.60;;
72584;SDS011;60618;40.084;32.908;2023-05-23T14:02:35;19.33;;;7.40;;
72584;SDS011;60618;40.084;32.908;2023-05-23T14:05:02;22.40;;;7.82;;
72584;SDS011;60618;40.084;32.908;2023-05-23T14:07:30;19.98;;;7.63;;
72584;SDS011;60618;40.084;32.908;2023-05-23T14:09:57;20.33;;;7.73;;
72584;SDS011;60618;40.084;32.908;2023-05-23T14:12:24;20.63;;;8.10;;
72584;SDS011;60618;40.084;32.908;2023-05-23T14:14:51;21.10;;;7.80;;
72584;SDS011;60618;40.084;32.908;2023-05-23T14:17:18;20.75;;;8.85;;
72584;SDS011;60618;40.084;32.908;2023-05-23T14:19:45;24.23;;;8.75;;
72584;SDS011;60618;40.084;32.908;2023-05-23T14:22:12;20.33;;;8.30;;
72584;SDS011;60618;40.084;32.908;2023-05-23T14:24:42;23.52;;;8.50;;
72584;SDS011;60618;40.084;32.908;2023-05-23T14:27:12;16.65;;;8.00;;
72584;SDS011;60618;40.084;32.908;2023-05-23T14:29:45;20.35;;;8.13;;
72584;SDS011;60618;40.084;32.908;2023-05-23T14:32:15;18.83;;;7.75;;
72584;SDS011;60618;40.084;32.908;2023-05-23T14:34:43;21.30;;;8.10;;
72584;SDS011;60618;40.084;32.908;2023-05-23T14:37:20;16.85;;;7.68;;
72584;SDS011;60618;40.084;32.908;2023-05-23T14:39:49;17.33;;;8.93;;
72584;SDS011;60618;40.084;32.908;2023-05-23T14:42:16;16.40;;;6.85;;
72584;SDS011;60618;40.084;32.908;2023-05-23T14:44:43;19.33;;;8.35;;
72584;SDS011;60618;40.084;32.908;2023-05-23T14:47:13;19.93;;;9.00;;
72584;SDS011;60618;40.084;32.908;2023-05-23T14:49:45;24.98;;;9.40;;
72584;SDS011;60618;40.084;32.908;2023-05-23T14:52:13;22.88;;;9.60;;